sensor_id;sensor_type;location;lat;lon;timestamp;pressure;altitude;pressure_sealevel;temperature;humidity
79250;BME280;68679;51.030;7.584;2023-09-19T00:01:45;98293.69;;;17.00;67.77
79250;BME280;68679;51.030;7.584;2023-09-19T00:04:11;98289.03;;;16.97;67.70
79250;BME280;68679;51.030;7.584;2023-09-19T00:06:37;98295.88;;;16.98;67.33
79250;BME280;68679;51.030;7.584;2023-09-19T00:09:03;98290.03;;;16.93;67.21
79250;BME280;68679;51.030;7.584;2023-09-19T00:11:29;98294.13;;;16.90;67.30
79250;BME280;68679;51.030;7.584;2023-09-19T00:13:54;98300.97;;;16.91;67.12
79250;BME280;68679;51.030;7.584;2023-09-19T00:16:19;98305.06;;;16.88;67.33
79250;BME280;68679;51.030;7.584;2023-09-19T00:18:45;98301.16;;;16.86;66.99
79250;BME280;68679;51.030;7.584;2023-09-19T00:21:11;98299.19;;;16.83;67.14
79250;BME280;68679;51.030;7.584;2023-09-19T00:23:38;98305.13;;;16.80;67.00
79250;BME280;68679;51.030;7.584;2023-09-19T00:26:03;98310.97;;;16.73;66.76
79250;BME280;68679;51.030;7.584;2023-09-19T00:28:29;98312.41;;;16.71;66.97
79250;BME280;68679;51.030;7.584;2023-09-19T00:30:55;98311.66;;;16.70;67.27
79250;BME280;68679;51.030;7.584;2023-09-19T00:33:21;98318.03;;;16.69;67.26
79250;BME280;68679;51.030;7.584;2023-09-19T00:35:56;98312.25;;;16.67;67.15
79250;BME280;68679;51.030;7.584;2023-09-19T00:38:27;98314.34;;;16.61;66.79
79250;BME280;68679;51.030;7.584;2023-09-19T00:40:53;98307.63;;;16.64;67.03
79250;BME280;68679;51.030;7.584;2023-09-19T00:43:20;98313.78;;;16.56;66.91
79250;BME280;68679;51.030;7.584;2023-09-19T00:45:48;98313.69;;;16.52;66.97
79250;BME280;68679;51.030;7.584;2023-09-19T00:48:14;98315.22;;;16.53;67.11
79250;BME280;68679;51.030;7.584;2023-09-19T00:50:41;98313.34;;;16.54;66.93
79250;BME280;68679;51.030;7.584;2023-09-19T00:53:07;98320.72;;;16.48;66.81
79250;BME280;68679;51.030;7.584;2023-09-19T00:55:34;98326.69;;;16.45;66.65
79250;BME280;68679;51.030;7.584;2023-09-19T00:58:00;98322.69;;;16.39;67.18
79250;BME280;68679;51.030;7.584;2023-09-19T01:00:25;98327.06;;;16.35;67.16
79250;BME280;68679;51.030;7.584;2023-09-19T01:02:51;98337.53;;;16.31;66.66
79250;BME280;68679;51.030;7.584;2023-09-19T01:05:17;98336.50;;;16.24;66.90
79250;BME280;68679;51.030;7.584;2023-09-19T01:07:43;98338.06;;;16.25;67.06
79250;BME280;68679;51.030;7.584;2023-09-19T01:10:15;98337.03;;;16.17;66.70
79250;BME280;68679;51.030;7.584;2023-09-19T01:13:04;98341.41;;;16.13;67.06
79250;BME280;68679;51.030;7.584;2023-09-19T01:23:59;98344.66;;;15.98;66.79
79250;BME280;68679;51.030;7.584;2023-09-19T01:26:46;98345.63;;;15.93;67.18
79250;BME280;68679;51.030;7.584;2023-09-19T01:29:39;98343.16;;;15.88;67.17
79250;BME280;68679;51.030;7.584;2023-09-19T01:32:06;98354.84;;;15.87;66.84
79250;BME280;68679;51.030;7.584;2023-09-19T01:35:04;98355.50;;;15.84;67.02
79250;BME280;68679;51.030;7.584;2023-09-19T01:37:29;98358.44;;;15.82;66.80
79250;BME280;68679;51.030;7.584;2023-09-19T01:40:04;98356.78;;;15.78;67.29
79250;BME280;68679;51.030;7.584;2023-09-19T01:43:12;98357.69;;;15.82;67.43
79250;BME280;68679;51.030;7.584;2023-09-19T01:46:04;98367.16;;;15.83;66.91
79250;BME280;68679;51.030;7.584;2023-09-19T01:48:41;98364.41;;;15.79;67.40
79250;BME280;68679;51.030;7.584;2023-09-19T01:51:14;98369.03;;;15.82;67.25
79250;BME280;68679;51.030;7.584;2023-09-19T01:54:11;98359.03;;;15.88;67.30
79250;BME280;68679;51.030;7.584;2023-09-19T01:56:44;98358.44;;;15.82;67.31
79250;BME280;68679;51.030;7.584;2023-09-19T01:59:13;98353.81;;;15.79;67.86
79250;BME280;68679;51.030;7.584;2023-09-19T02:01:42;98362.53;;;15.80;67.48
79250;BME280;68679;51.030;7.584;2023-09-19T02:04:10;98360.03;;;15.84;67.30
79250;BME280;68679;51.030;7.584;2023-09-19T02:06:35;98361.56;;;15.85;67.48
79250;BME280;68679;51.030;7.584;2023-09-19T02:09:04;98368.59;;;15.80;67.91
79250;BME280;68679;51.030;7.584;2023-09-19T02:11:29;98373.53;;;15.82;68.00
79250;BME280;68679;51.030;7.584;2023-09-19T02:13:55;98371.81;;;15.86;67.94
79250;BME280;68679;51.030;7.584;2023-09-19T02:16:20;98380.19;;;15.88;67.67
79250;BME280;68679;51.030;7.584;2023-09-19T02:18:49;98378.97;;;15.86;67.55
79250;BME280;68679;51.030;7.584;2023-09-19T02:21:15;98378.53;;;15.84;67.70
79250;BME280;68679;51.030;7.584;2023-09-19T02:23:40;98388.13;;;15.88;67.73
79250;BME280;68679;51.030;7.584;2023-09-19T02:26:06;98390.00;;;15.88;68.07
79250;BME280;68679;51.030;7.584;2023-09-19T02:28:31;98389.22;;;15.87;67.97
79250;BME280;68679;51.030;7.584;2023-09-19T02:30:58;98388.59;;;15.90;68.03
79250;BME280;68679;51.030;7.584;2023-09-19T02:33:23;98379.41;;;15.88;67.81
79250;BME280;68679;51.030;7.584;2023-09-19T02:35:48;98388.00;;;15.85;67.86
79250;BME280;68679;51.030;7.584;2023-09-19T02:38:14;98393.75;;;15.87;67.69
79250;BME280;68679;51.030;7.584;2023-09-19T02:40:43;98392.38;;;15.80;67.91
79250;BME280;68679;51.030;7.584;2023-09-19T02:43:08;98394.69;;;15.82;68.07
79250;BME280;68679;51.030;7.584;2023-09-19T02:45:34;98385.53;;;15.79;68.15
79250;BME280;68679;51.030;7.584;2023-09-19T02:47:59;98389.09;;;15.84;67.78
79250;BME280;68679;51.030;7.584;2023-09-19T02:50:25;98388.63;;;15.81;67.83
79250;BME280;68679;51.030;7.584;2023-09-19T02:52:50;98384.31;;;15.77;68.06
79250;BME280;68679;51.030;7.584;2023-09-19T02:55:17;98390.09;;;15.70;68.15
79250;BME280;68679;51.030;7.584;2023-09-19T02:57:50;98396.63;;;15.73;67.93
79250;BME280;68679;51.030;7.584;2023-09-19T03:00:17;98395.84;;;15.72;67.92
79250;BME280;68679;51.030;7.584;2023-09-19T03:02:54;98404.41;;;15.69;68.36
79250;BME280;68679;51.030;7.584;2023-09-19T03:05:21;98408.59;;;15.70;67.78
79250;BME280;68679;51.030;7.584;2023-09-19T03:07:47;98408.59;;;15.70;67.93
79250;BME280;68679;51.030;7.584;2023-09-19T03:10:20;98407.97;;;15.73;67.75
79250;BME280;68679;51.030;7.584;2023-09-19T03:12:46;98414.03;;;15.74;67.70
79250;BME280;68679;51.030;7.584;2023-09-19T03:15:11;98406.72;;;15.71;67.81
79250;BME280;68679;51.030;7.584;2023-09-19T03:17:37;98409.84;;;15.73;67.60
79250;BME280;68679;51.030;7.584;2023-09-19T03:20:03;98410.97;;;15.63;67.70
79250;BME280;68679;51.030;7.584;2023-09-19T03:22:29;98418.13;;;15.63;68.01
79250;BME280;68679;51.030;7.584;2023-09-19T03:24:54;98420.78;;;15.63;68.03
79250;BME280;68679;51.030;7.584;2023-09-19T03:27:20;98426.69;;;15.60;67.69
79250;BME280;68679;51.030;7.584;2023-09-19T03:29:46;98431.97;;;15.60;68.05
79250;BME280;68679;51.030;7.584;2023-09-19T03:32:11;98440.06;;;15.54;68.42
79250;BME280;68679;51.030;7.584;2023-09-19T03:34:38;98437.88;;;15.56;68.31
79250;BME280;68679;51.030;7.584;2023-09-19T03:37:09;98437.53;;;15.58;68.05
79250;BME280;68679;51.030;7.584;2023-09-19T03:39:34;98435.06;;;15.62;67.87
79250;BME280;68679;51.030;7.584;2023-09-19T03:41:59;98438.03;;;15.60;67.54
79250;BME280;68679;51.030;7.584;2023-09-19T03:44:25;98450.00;;;15.57;67.38
79250;BME280;68679;51.030;7.584;2023-09-19T03:46:50;98441.78;;;15.50;68.12
79250;BME280;68679;51.030;7.584;2023-09-19T03:49:16;98451.25;;;15.51;67.76
79250;BME280;68679;51.030;7.584;2023-09-19T03:51:41;98441.34;;;15.48;67.73
79250;BME280;68679;51.030;7.584;2023-09-19T03:54:07;98441.63;;;15.47;67.57
79250;BME280;68679;51.030;7.584;2023-09-19T03:56:33;98449.75;;;15.42;67.62
79250;BME280;68679;51.030;7.584;2023-09-19T03:58:58;98439.47;;;15.40;67.89
79250;BME280;68679;51.030;7.584;2023-09-19T04:01:23;98440.25;;;15.41;67.72
79250;BME280;68679;51.030;7.584;2023-09-19T04:03:49;98444.16;;;15.35;67.77
79250;BME280;68679;51.030;7.584;2023-09-19T04:06:17;98436.13;;;15.31;67.85
79250;BME280;68679;51.030;7.584;2023-09-19T04:08:43;98434.41;;;15.26;68.05
79250;BME280;68679;51.030;7.584;2023-09-19T04:11:09;98432.41;;;15.23;67.88
79250;BME280;68679;51.030;7.584;2023-09-19T04:13:35;98438.16;;;15.25;67.85
79250;BME280;68679;51.030;7.584;2023-09-19T04:16:00;98441.56;;;15.26;67.87
79250;BME280;68679;51.030;7.584;2023-09-19T04:18:26;98440.03;;;15.25;67.75
79250;BME280;68679;51.030;7.584;2023-09-19T04:20:51;98444.38;;;15.21;67.66
79250;BME280;68679;51.030;7.584;2023-09-19T04:23:17;98445.91;;;15.22;67.70
79250;BME280;68679;51.030;7.584;2023-09-19T04:25:45;98445.91;;;15.22;67.64
79250;BME280;68679;51.030;7.584;2023-09-19T04:28:10;98444.25;;;15.17;67.92
79250;BME280;68679;51.030;7.584;2023-09-19T04:30:36;98453.88;;;15.13;68.08
79250;BME280;68679;51.030;7.584;2023-09-19T04:33:02;98441.13;;;15.15;67.44
79250;BME280;68679;51.030;7.584;2023-09-19T04:35:27;98456.69;;;15.08;67.69
79250;BME280;68679;51.030;7.584;2023-09-19T04:37:54;98451.06;;;15.10;67.92
79250;BME280;68679;51.030;7.584;2023-09-19T04:40:19;98443.03;;;15.06;67.80
79250;BME280;68679;51.030;7.584;2023-09-19T04:42:45;98447.53;;;15.06;67.79
79250;BME280;68679;51.030;7.584;2023-09-19T04:45:11;98446.16;;;14.99;67.84
79250;BME280;68679;51.030;7.584;2023-09-19T04:47:37;98445.38;;;14.99;67.72
79250;BME280;68679;51.030;7.584;2023-09-19T04:50:09;98457.00;;;14.98;67.88
79250;BME280;68679;51.030;7.584;2023-09-19T04:52:40;98458.09;;;14.97;67.69
79250;BME280;68679;51.030;7.584;2023-09-19T04:55:08;98460.44;;;14.90;67.88
79250;BME280;68679;51.030;7.584;2023-09-19T04:57:34;98453.94;;;14.87;67.61
79250;BME280;68679;51.030;7.584;2023-09-19T04:59:59;98460.28;;;14.86;67.78
79250;BME280;68679;51.030;7.584;2023-09-19T05:02:24;98457.97;;;14.85;67.67
79250;BME280;68679;51.030;7.584;2023-09-19T05:04:50;98471.78;;;14.82;67.23
79250;BME280;68679;51.030;7.584;2023-09-19T05:07:15;98459.84;;;14.75;67.48
79250;BME280;68679;51.030;7.584;2023-09-19T05:09:42;98471.00;;;14.72;67.52
79250;BME280;68679;51.030;7.584;2023-09-19T05:12:07;98468.38;;;14.72;67.58
79250;BME280;68679;51.030;7.584;2023-09-19T05:14:35;98477.22;;;14.68;67.64
79250;BME280;68679;51.030;7.584;2023-09-19T05:17:01;98476.31;;;14.64;67.44
79250;BME280;68679;51.030;7.584;2023-09-19T05:19:28;98481.09;;;14.62;67.53
79250;BME280;68679;51.030;7.584;2023-09-19T05:21:53;98480.03;;;14.63;67.44
79250;BME280;68679;51.030;7.584;2023-09-19T05:24:20;98485.59;;;14.61;67.25
79250;BME280;68679;51.030;7.584;2023-09-19T05:26:48;98484.97;;;14.56;67.61
79250;BME280;68679;51.030;7.584;2023-09-19T05:29:13;98484.84;;;14.52;67.47
79250;BME280;68679;51.030;7.584;2023-09-19T05:31:39;98490.44;;;14.51;67.23
79250;BME280;68679;51.030;7.584;2023-09-19T05:34:06;98493.66;;;14.47;67.53
79250;BME280;68679;51.030;7.584;2023-09-19T05:36:31;98496.59;;;14.46;67.56
79250;BME280;68679;51.030;7.584;2023-09-19T05:38:57;98500.03;;;14.46;67.68
79250;BME280;68679;51.030;7.584;2023-09-19T05:41:22;98501.09;;;14.45;67.42
79250;BME280;68679;51.030;7.584;2023-09-19T05:43:49;98503.09;;;14.40;67.60
79250;BME280;68679;51.030;7.584;2023-09-19T05:46:15;98514.75;;;14.39;67.32
79250;BME280;68679;51.030;7.584;2023-09-19T05:48:41;98513.50;;;14.36;67.20
79250;BME280;68679;51.030;7.584;2023-09-19T05:51:06;98515.34;;;14.36;67.39
79250;BME280;68679;51.030;7.584;2023-09-19T05:53:32;98521.72;;;14.35;67.40
79250;BME280;68679;51.030;7.584;2023-09-19T05:55:57;98527.44;;;14.37;67.61
79250;BME280;68679;51.030;7.584;2023-09-19T05:58:23;98528.22;;;14.37;67.75
79250;BME280;68679;51.030;7.584;2023-09-19T06:00:49;98528.84;;;14.34;67.66
79250;BME280;68679;51.030;7.584;2023-09-19T06:03:15;98542.03;;;14.34;67.89
79250;BME280;68679;51.030;7.584;2023-09-19T06:05:42;98542.81;;;14.35;68.05
79250;BME280;68679;51.030;7.584;2023-09-19T06:08:07;98554.59;;;14.37;67.92
79250;BME280;68679;51.030;7.584;2023-09-19T06:10:33;98548.88;;;14.35;67.81
79250;BME280;68679;51.030;7.584;2023-09-19T06:13:00;98551.97;;;14.37;67.92
79250;BME280;68679;51.030;7.584;2023-09-19T06:15:29;98548.56;;;14.37;67.78
79250;BME280;68679;51.030;7.584;2023-09-19T06:17:57;98551.69;;;14.39;67.78
79250;BME280;68679;51.030;7.584;2023-09-19T06:20:25;98556.19;;;14.38;68.16
79250;BME280;68679;51.030;7.584;2023-09-19T06:22:52;98556.63;;;14.40;68.18
79250;BME280;68679;51.030;7.584;2023-09-19T06:25:18;98568.75;;;14.41;68.37
79250;BME280;68679;51.030;7.584;2023-09-19T06:27:51;98559.72;;;14.42;67.99
79250;BME280;68679;51.030;7.584;2023-09-19T06:30:19;98566.00;;;14.46;68.05
79250;BME280;68679;51.030;7.584;2023-09-19T06:32:45;98579.03;;;14.52;68.07
79250;BME280;68679;51.030;7.584;2023-09-19T06:35:14;98585.09;;;14.52;68.39
79250;BME280;68679;51.030;7.584;2023-09-19T06:37:40;98582.31;;;14.57;68.05
79250;BME280;68679;51.030;7.584;2023-09-19T06:40:10;98579.97;;;14.56;68.51
79250;BME280;68679;51.030;7.584;2023-09-19T06:42:46;98578.41;;;14.55;68.37
79250;BME280;68679;51.030;7.584;2023-09-19T06:45:14;98578.59;;;14.58;68.44
79250;BME280;68679;51.030;7.584;2023-09-19T06:47:47;98575.03;;;14.63;68.10
79250;BME280;68679;51.030;7.584;2023-09-19T06:50:17;98585.59;;;14.63;67.94
79250;BME280;68679;51.030;7.584;2023-09-19T06:52:44;98586.34;;;14.63;68.58
79250;BME280;68679;51.030;7.584;2023-09-19T06:55:10;98584.19;;;14.65;68.46
79250;BME280;68679;51.030;7.584;2023-09-19T06:57:38;98586.69;;;14.70;68.31
79250;BME280;68679;51.030;7.584;2023-09-19T07:00:06;98589.91;;;14.67;68.35
79250;BME280;68679;51.030;7.584;2023-09-19T07:02:44;98585.13;;;14.69;68.42
79250;BME280;68679;51.030;7.584;2023-09-19T07:05:09;98597.09;;;14.75;68.45
79250;BME280;68679;51.030;7.584;2023-09-19T07:07:35;98591.50;;;14.77;68.68
79250;BME280;68679;51.030;7.584;2023-09-19T07:10:04;98591.03;;;14.75;68.48
79250;BME280;68679;51.030;7.584;2023-09-19T07:12:36;98580.16;;;14.77;68.41
79250;BME280;68679;51.030;7.584;2023-09-19T07:15:01;98588.72;;;14.82;68.43
79250;BME280;68679;51.030;7.584;2023-09-19T07:17:26;98582.03;;;14.85;68.73
79250;BME280;68679;51.030;7.584;2023-09-19T07:19:52;98583.28;;;14.87;68.44
79250;BME280;68679;51.030;7.584;2023-09-19T07:22:18;98591.34;;;14.91;68.51
79250;BME280;68679;51.030;7.584;2023-09-19T07:24:43;98599.59;;;14.89;68.46
79250;BME280;68679;51.030;7.584;2023-09-19T07:27:08;98602.38;;;14.93;68.45
79250;BME280;68679;51.030;7.584;2023-09-19T07:29:34;98597.56;;;14.95;68.06
79250;BME280;68679;51.030;7.584;2023-09-19T07:31:59;98593.22;;;14.99;68.24
79250;BME280;68679;51.030;7.584;2023-09-19T07:34:25;98594.78;;;15.00;68.53
79250;BME280;68679;51.030;7.584;2023-09-19T07:36:50;98604.25;;;15.01;68.57
79250;BME280;68679;51.030;7.584;2023-09-19T07:39:16;98607.84;;;15.05;67.97
79250;BME280;68679;51.030;7.584;2023-09-19T07:41:41;98600.81;;;15.09;67.79
79250;BME280;68679;51.030;7.584;2023-09-19T07:44:07;98608.47;;;15.11;67.79
79250;BME280;68679;51.030;7.584;2023-09-19T07:46:32;98600.06;;;15.09;68.17
79250;BME280;68679;51.030;7.584;2023-09-19T07:48:57;98609.53;;;15.10;68.28
79250;BME280;68679;51.030;7.584;2023-09-19T07:51:23;98606.28;;;15.13;67.99
79250;BME280;68679;51.030;7.584;2023-09-19T07:53:48;98613.72;;;15.19;67.84
79250;BME280;68679;51.030;7.584;2023-09-19T07:56:14;98613.41;;;15.21;67.56
79250;BME280;68679;51.030;7.584;2023-09-19T07:58:39;98619.19;;;15.23;67.74
79250;BME280;68679;51.030;7.584;2023-09-19T08:01:09;98624.13;;;15.24;68.49
79250;BME280;68679;51.030;7.584;2023-09-19T08:03:36;98618.84;;;15.24;68.00
79250;BME280;68679;51.030;7.584;2023-09-19T08:06:06;98626.63;;;15.29;67.89
79250;BME280;68679;51.030;7.584;2023-09-19T08:08:33;98630.34;;;15.28;67.71
79250;BME280;68679;51.030;7.584;2023-09-19T08:11:02;98634.84;;;15.37;67.63
79250;BME280;68679;51.030;7.584;2023-09-19T08:13:28;98628.47;;;15.38;67.89
79250;BME280;68679;51.030;7.584;2023-09-19T08:15:53;98630.97;;;15.43;67.45
79250;BME280;68679;51.030;7.584;2023-09-19T08:18:19;98634.22;;;15.48;67.57
79250;BME280;68679;51.030;7.584;2023-09-19T08:20:50;98635.00;;;15.49;67.52
79250;BME280;68679;51.030;7.584;2023-09-19T08:23:16;98639.97;;;15.50;67.29
79250;BME280;68679;51.030;7.584;2023-09-19T08:25:42;98632.97;;;15.54;67.49
79250;BME280;68679;51.030;7.584;2023-09-19T08:28:07;98635.63;;;15.54;67.18
79250;BME280;68679;51.030;7.584;2023-09-19T08:30:37;98634.66;;;15.59;67.38
79250;BME280;68679;51.030;7.584;2023-09-19T08:33:05;98626.91;;;15.63;66.85
79250;BME280;68679;51.030;7.584;2023-09-19T08:35:31;98629.25;;;15.64;66.94
79250;BME280;68679;51.030;7.584;2023-09-19T08:37:57;98631.28;;;15.67;66.72
79250;BME280;68679;51.030;7.584;2023-09-19T08:40:22;98640.44;;;15.70;67.04
79250;BME280;68679;51.030;7.584;2023-09-19T08:42:52;98630.34;;;15.72;67.14
79250;BME280;68679;51.030;7.584;2023-09-19T08:45:19;98643.25;;;15.73;66.96
79250;BME280;68679;51.030;7.584;2023-09-19T08:50:39;98639.78;;;15.81;66.70
79250;BME280;68679;51.030;7.584;2023-09-19T08:53:11;98626.72;;;15.85;66.59
79250;BME280;68679;51.030;7.584;2023-09-19T08:55:40;98631.69;;;15.87;66.81
79250;BME280;68679;51.030;7.584;2023-09-19T08:58:10;98633.41;;;15.91;66.43
79250;BME280;68679;51.030;7.584;2023-09-19T09:00:36;98636.50;;;15.93;66.29
79250;BME280;68679;51.030;7.584;2023-09-19T09:03:03;98635.88;;;15.96;66.53
79250;BME280;68679;51.030;7.584;2023-09-19T09:05:32;98632.13;;;15.97;66.73
79250;BME280;68679;51.030;7.584;2023-09-19T09:07:58;98636.50;;;16.02;66.31
79250;BME280;68679;51.030;7.584;2023-09-19T09:10:28;98634.75;;;16.06;66.31
79250;BME280;68679;51.030;7.584;2023-09-19T09:12:54;98644.53;;;16.05;66.05
79250;BME280;68679;51.030;7.584;2023-09-19T09:15:23;98637.53;;;16.09;66.36
79250;BME280;68679;51.030;7.584;2023-09-19T09:17:51;98636.59;;;16.14;66.43
79250;BME280;68679;51.030;7.584;2023-09-19T09:20:19;98641.69;;;16.19;66.69
79250;BME280;68679;51.030;7.584;2023-09-19T09:22:52;98640.31;;;16.22;66.09
79250;BME280;68679;51.030;7.584;2023-09-19T09:25:19;98639.97;;;16.23;66.06
79250;BME280;68679;51.030;7.584;2023-09-19T09:28:02;98639.47;;;16.30;65.79
79250;BME280;68679;51.030;7.584;2023-09-19T09:30:35;98639.97;;;16.32;66.15
79250;BME280;68679;51.030;7.584;2023-09-19T09:33:13;98637.09;;;16.37;65.77
79250;BME280;68679;51.030;7.584;2023-09-19T09:35:49;98643.97;;;16.38;65.79
79250;BME280;68679;51.030;7.584;2023-09-19T09:38:21;98636.16;;;16.42;65.56
79250;BME280;68679;51.030;7.584;2023-09-19T09:40:51;98643.78;;;16.43;65.81
79250;BME280;68679;51.030;7.584;2023-09-19T09:43:33;98632.25;;;16.48;65.67
79250;BME280;68679;51.030;7.584;2023-09-19T09:46:19;98631.28;;;16.52;65.45
79250;BME280;68679;51.030;7.584;2023-09-19T09:49:01;98632.84;;;16.53;65.75
79250;BME280;68679;51.030;7.584;2023-09-19T09:54:23;98631.88;;;16.58;65.47
79250;BME280;68679;51.030;7.584;2023-09-19T09:56:56;98627.03;;;16.60;65.37
79250;BME280;68679;51.030;7.584;2023-09-19T09:59:44;98630.59;;;16.64;65.19
79250;BME280;68679;51.030;7.584;2023-09-19T10:02:12;98627.63;;;16.66;65.52
79250;BME280;68679;51.030;7.584;2023-09-19T10:04:39;98631.66;;;16.72;65.29
79250;BME280;68679;51.030;7.584;2023-09-19T10:07:30;98627.59;;;16.74;65.18
79250;BME280;68679;51.030;7.584;2023-09-19T10:10:08;98620.13;;;16.76;64.98
79250;BME280;68679;51.030;7.584;2023-09-19T10:12:47;98622.13;;;16.79;65.06
79250;BME280;68679;51.030;7.584;2023-09-19T10:15:15;98622.25;;;16.83;65.32
79250;BME280;68679;51.030;7.584;2023-09-19T10:17:44;98613.97;;;16.84;64.96
79250;BME280;68679;51.030;7.584;2023-09-19T10:20:14;98617.72;;;16.83;64.72
79250;BME280;68679;51.030;7.584;2023-09-19T10:23:01;98618.00;;;16.91;64.86
79250;BME280;68679;51.030;7.584;2023-09-19T10:25:29;98612.38;;;16.92;64.64
79250;BME280;68679;51.030;7.584;2023-09-19T10:27:56;98609.53;;;16.97;64.62
79250;BME280;68679;51.030;7.584;2023-09-19T10:30:25;98619.81;;;16.99;64.44
79250;BME280;68679;51.030;7.584;2023-09-19T10:33:03;98613.09;;;17.01;64.79
79250;BME280;68679;51.030;7.584;2023-09-19T10:35:29;98602.63;;;17.05;64.85
79250;BME280;68679;51.030;7.584;2023-09-19T10:37:58;98618.97;;;17.07;64.53
79250;BME280;68679;51.030;7.584;2023-09-19T10:40:24;98608.03;;;17.08;64.63
79250;BME280;68679;51.030;7.584;2023-09-19T10:43:02;98610.50;;;17.13;64.26
79250;BME280;68679;51.030;7.584;2023-09-19T10:45:33;98601.44;;;17.14;64.33
79250;BME280;68679;51.030;7.584;2023-09-19T10:48:02;98604.34;;;17.22;64.11
79250;BME280;68679;51.030;7.584;2023-09-19T10:50:32;98602.47;;;17.22;64.36
79250;BME280;68679;51.030;7.584;2023-09-19T10:53:01;98606.69;;;17.23;64.00
79250;BME280;68679;51.030;7.584;2023-09-19T10:55:31;98604.59;;;17.29;63.96
79250;BME280;68679;51.030;7.584;2023-09-19T10:57:56;98616.78;;;17.30;63.64
79250;BME280;68679;51.030;7.584;2023-09-19T11:00:52;98615.78;;;17.34;63.64
79250;BME280;68679;51.030;7.584;2023-09-19T11:03:19;98607.19;;;17.37;63.99
79250;BME280;68679;51.030;7.584;2023-09-19T11:06:01;98609.31;;;17.44;64.00
79250;BME280;68679;51.030;7.584;2023-09-19T11:08:50;98600.03;;;17.50;63.69
79250;BME280;68679;51.030;7.584;2023-09-19T11:11:43;98618.06;;;17.57;63.71
79250;BME280;68679;51.030;7.584;2023-09-19T11:30:34;98586.28;;;17.69;63.18
79250;BME280;68679;51.030;7.584;2023-09-19T11:36:05;98591.53;;;17.78;62.90
79250;BME280;68679;51.030;7.584;2023-09-19T11:43:53;98588.66;;;17.83;62.96
79250;BME280;68679;51.030;7.584;2023-09-19T11:46:24;98598.28;;;17.87;62.50
79250;BME280;68679;51.030;7.584;2023-09-19T11:48:52;98599.19;;;17.91;62.29
79250;BME280;68679;51.030;7.584;2023-09-19T11:53:58;98601.28;;;17.98;62.43
79250;BME280;68679;51.030;7.584;2023-09-19T11:56:26;98597.53;;;17.99;62.37
79250;BME280;68679;51.030;7.584;2023-09-19T11:58:54;98599.19;;;18.04;61.98
79250;BME280;68679;51.030;7.584;2023-09-19T12:01:22;98613.22;;;18.04;62.29
79250;BME280;68679;51.030;7.584;2023-09-19T12:03:53;98611.00;;;18.06;61.99
79250;BME280;68679;51.030;7.584;2023-09-19T12:06:19;98608.69;;;18.05;61.81
79250;BME280;68679;51.030;7.584;2023-09-19T12:08:47;98604.16;;;18.05;62.14
79250;BME280;68679;51.030;7.584;2023-09-19T12:11:14;98601.63;;;18.09;61.83
79250;BME280;68679;51.030;7.584;2023-09-19T12:13:47;98599.06;;;18.12;61.70
79250;BME280;68679;51.030;7.584;2023-09-19T12:16:20;98596.41;;;18.12;61.79
79250;BME280;68679;51.030;7.584;2023-09-19T12:18:50;98604.84;;;18.14;61.62
79250;BME280;68679;51.030;7.584;2023-09-19T12:21:23;98600.75;;;18.17;61.74
79250;BME280;68679;51.030;7.584;2023-09-19T12:24:06;98599.28;;;18.19;61.84
79250;BME280;68679;51.030;7.584;2023-09-19T12:26:42;98600.88;;;18.20;61.56
79250;BME280;68679;51.030;7.584;2023-09-19T12:29:16;98607.72;;;18.21;61.88
79250;BME280;68679;51.030;7.584;2023-09-19T12:31:53;98597.97;;;18.26;61.63
79250;BME280;68679;51.030;7.584;2023-09-19T12:34:26;98600.63;;;18.26;61.22
79250;BME280;68679;51.030;7.584;2023-09-19T12:39:53;98604.50;;;18.28;61.05
79250;BME280;68679;51.030;7.584;2023-09-19T12:42:22;98606.81;;;18.30;61.23
79250;BME280;68679;51.030;7.584;2023-09-19T12:44:50;98597.75;;;18.31;61.53
79250;BME280;68679;51.030;7.584;2023-09-19T12:47:20;98593.66;;;18.33;61.62
79250;BME280;68679;51.030;7.584;2023-09-19T12:52:37;98571.97;;;18.43;61.21
79250;BME280;68679;51.030;7.584;2023-09-19T12:55:02;98576.19;;;18.44;60.94
79250;BME280;68679;51.030;7.584;2023-09-19T12:57:28;98567.53;;;18.47;60.87
79250;BME280;68679;51.030;7.584;2023-09-19T12:59:54;98568.09;;;18.53;60.51
79250;BME280;68679;51.030;7.584;2023-09-19T13:02:20;98567.97;;;18.62;61.13
79250;BME280;68679;51.030;7.584;2023-09-19T13:04:52;98576.94;;;18.69;60.20
79250;BME280;68679;51.030;7.584;2023-09-19T13:10:03;98576.81;;;18.66;60.32
79250;BME280;68679;51.030;7.584;2023-09-19T13:12:38;98571.50;;;18.66;60.01
79250;BME280;68679;51.030;7.584;2023-09-19T13:15:08;98566.97;;;18.66;59.99
79250;BME280;68679;51.030;7.584;2023-09-19T13:17:48;98567.88;;;18.70;60.22
79250;BME280;68679;51.030;7.584;2023-09-19T13:20:23;98568.84;;;18.78;59.80
79250;BME280;68679;51.030;7.584;2023-09-19T13:22:53;98560.22;;;18.81;59.52
79250;BME280;68679;51.030;7.584;2023-09-19T13:25:21;98560.97;;;18.82;59.90
79250;BME280;68679;51.030;7.584;2023-09-19T13:27:51;98554.97;;;18.85;59.58
79250;BME280;68679;51.030;7.584;2023-09-19T13:30:18;98553.56;;;18.87;59.30
79250;BME280;68679;51.030;7.584;2023-09-19T13:32:43;98555.19;;;18.92;59.81
79250;BME280;68679;51.030;7.584;2023-09-19T13:35:09;98543.34;;;18.89;59.05
79250;BME280;68679;51.030;7.584;2023-09-19T13:37:38;98545.66;;;18.91;59.30
79250;BME280;68679;51.030;7.584;2023-09-19T13:40:07;98533.50;;;18.90;59.22
79250;BME280;68679;51.030;7.584;2023-09-19T13:42:33;98533.16;;;18.91;59.15
79250;BME280;68679;51.030;7.584;2023-09-19T13:44:58;98534.47;;;18.97;58.73
79250;BME280;68679;51.030;7.584;2023-09-19T13:47:24;98543.31;;;19.01;59.09
79250;BME280;68679;51.030;7.584;2023-09-19T13:49:54;98533.78;;;19.00;59.06
79250;BME280;68679;51.030;7.584;2023-09-19T13:52:20;98534.41;;;19.10;58.49
79250;BME280;68679;51.030;7.584;2023-09-19T13:54:47;98535.19;;;19.10;58.67
79250;BME280;68679;51.030;7.584;2023-09-19T13:57:12;98533.63;;;19.09;58.54
79250;BME280;68679;51.030;7.584;2023-09-19T13:59:38;98546.91;;;19.09;58.19